• Join FlightAware (Why Join?)
  • Login
  • US Flag 
09:20PM EDT


 

Airport Tracker/Info


-or-


 

Live Flight TrackerFlight Track Log ✈ SWA2236 ✈ 17-Jul-2013 ✈ KABQ - KOAK

Flight Track Log - Related Links

Times and Time Zones

All times are in EDT time to prevent confusion due to time zone crossing. See the SWA2236 flight status page for this flight to view local times or setup timezone preferences in your user account.

Time Position Orientation Groundspeed Altitude Reporting Facility
EDT Latitude Longitude Course Direction KTS MPH feet Rate Location/Type
09:14AM 35.0672 -106.5083 66° East 230 265 8,600  Level Albuquerque Center
09:15AM 35.1131 -106.5567 319° Northwest 255 293 9,000 1,440 Climbing Albuquerque Center
09:16AM 35.1242 -106.6725 277° West 291 335 11,800 3,060 Climbing Albuquerque Center
09:17AM 35.1400 -106.7756 281° West 310 357 15,300 2,700 Climbing Albuquerque Center
09:18AM 35.1606 -106.8892 283° West 351 404 17,300 2,100 Climbing Albuquerque Center
09:19AM 35.1828 -107.0258 281° West 382 440 19,600 2,100 Climbing Albuquerque Center
09:20AM 35.2058 -107.1525 283° West 397 457 21,600 1,800 Climbing Albuquerque Center
09:21AM 35.2267 -107.2950 280° West 439 505 23,300 1,860 Climbing Albuquerque Center
09:22AM 35.2508 -107.4450 281° West 449 517 25,400 1,980 Climbing Albuquerque Center
09:23AM 35.2778 -107.6133 281° West 458 527 27,400 1,980 Climbing Albuquerque Center
09:24AM 35.3067 -107.7900 281° West 471 542 29,500 1,680 Climbing Albuquerque Center
09:25AM 35.3325 -107.9422 282° West 474 545 30,900 1,740 Climbing Albuquerque Center
09:26AM 35.3550 -108.0986 280° West 480 552 33,100 2,220 Climbing Albuquerque Center
09:27AM 35.3742 -108.2725 278° West 464 534 35,500 1,740 Climbing Albuquerque Center
09:28AM 35.3933 -108.4189 279° West 456 525 36,700 1,080 Climbing Albuquerque Center
09:29AM 35.4111 -108.5658 278° West 455 524 37,800 600 Climbing Albuquerque Center
09:30AM 35.4317 -108.7392 278° West 455 524 38,000 60 Climbing Albuquerque Center
09:31AM 35.4489 -108.8853 278° West 452 520 38,000  Level Albuquerque Center
09:32AM 35.4653 -109.0339 278° West 455 524 38,000  Level Albuquerque Center
09:33AM 35.4858 -109.2017 279° West 447 514 38,000  Level Albuquerque Center
09:34AM 35.5014 -109.3481 277° West 448 516 38,000  Level Albuquerque Center
09:35AM 35.5183 -109.4911 278° West 444 511 38,000  Level Albuquerque Center
09:36AM 35.5350 -109.6586 277° West 441 507 38,000  Level Albuquerque Center
09:37AM 35.5503 -109.8014 278° West 440 506 38,100 660 Climbing Albuquerque Center
09:38AM 35.5647 -109.9461 277° West 444 511 39,400 900 Climbing Albuquerque Center
09:39AM 35.5833 -110.1128 278° West 441 507 40,000 240 Climbing Albuquerque Center
09:41AM 35.5983 -110.2572 277° West 443 510 40,000  Level Albuquerque Center
09:42AM 35.6128 -110.4011 277° West 443 510 40,000  Level Albuquerque Center
09:43AM 35.6303 -110.5711 277° West 447 514 40,000  Level Albuquerque Center
09:44AM 35.6458 -110.7169 278° West 449 517 40,000  Level Albuquerque Center
09:45AM 35.6600 -110.8653 277° West 453 521 40,000  Level Albuquerque Center
09:46AM 35.6775 -111.0353 277° West 451 519 40,000  Level Albuquerque Center
09:47AM 35.6919 -111.1814 277° West 447 514 40,000  Level Albuquerque Center
09:48AM 35.7064 -111.3286 277° West 451 519 40,000  Level Albuquerque Center
09:49AM 35.7236 -111.4950 277° West 451 519 40,000  Level Albuquerque Center
09:50AM 35.7378 -111.6444 277° West 448 516 40,000  Level Albuquerque Center
09:51AM 35.7492 -111.7628 277° West 442 509 40,000  Level Los Angeles Center
09:52AM 35.7650 -111.9422 276° West 442 509 40,000  Level Los Angeles Center
09:53AM 35.7803 -112.1169 276° West 436 502 40,000  Level Los Angeles Center
09:54AM 35.7942 -112.2639 277° West 436 502 40,000  Level Los Angeles Center
09:55AM 35.8078 -112.4108 277° West 436 502 40,000  Level Los Angeles Center
09:56AM 35.8231 -112.5869 276° West 436 502 40,000  Level Los Angeles Center
09:57AM 35.8356 -112.7325 276° West 434 499 40,000  Level Los Angeles Center
09:58AM 35.8508 -112.9086 276° West 436 502 40,000  Level Los Angeles Center
09:59AM 35.8625 -113.0561 276° West 437 503 40,000  Level Los Angeles Center
10:00AM 35.8753 -113.2053 276° West 441 507 40,000  Level Los Angeles Center
10:01AM 35.8869 -113.3542 276° West 441 507 40,000  Level Los Angeles Center
10:02AM 35.8981 -113.5050 275° West 445 512 40,000  Level Los Angeles Center
10:03AM 35.9119 -113.6817 276° West 434 499 40,000  Level Los Angeles Center
10:04AM 35.9219 -113.8314 275° West 434 499 40,000  Level Los Angeles Center
10:05AM 35.9344 -113.9822 276° West 440 506 40,000  Level Los Angeles Center
10:06AM 35.9447 -114.1314 275° West 438 504 40,000  Level Los Angeles Center
10:07AM 35.9564 -114.2786 276° West 433 498 40,000  Level Los Angeles Center
10:08AM 35.9664 -114.4278 275° West 435 501 40,000  Level Los Angeles Center
10:09AM 35.9767 -114.5756 275° West 432 497 40,000  Level Los Angeles Center
10:11AM 35.9886 -114.7533 275° West 431 496 40,000  Level Los Angeles Center
10:12AM 36.0111 -114.8992 281° West 431 496 40,000  Level Los Angeles Center
10:13AM 36.0708 -115.0336 299° West 438 504 40,000  Level Los Angeles Center
10:14AM 36.1283 -115.1661 298° West 438 504 40,000  Level Los Angeles Center
10:15AM 36.1883 -115.3014 299° West 446 513 40,000  Level Los Angeles Center
10:16AM 36.2472 -115.4378 298° West 448 516 40,000  Level Los Angeles Center
10:17AM 36.3125 -115.5917 298° West 456 525 40,000  Level Los Angeles Center
10:18AM 36.3714 -115.7306 298° West 458 527 40,000  Level Los Angeles Center
10:19AM 36.4308 -115.8681 298° West 453 521 40,000  Level Los Angeles Center
10:20AM 36.4892 -116.0044 298° West 454 522 40,000  Level Los Angeles Center
10:21AM 36.5594 -116.1719 298° West 456 525 40,000  Level Los Angeles Center
10:22AM 36.6181 -116.3111 298° West 454 522 40,000  Level Los Angeles Center
10:23AM 36.6761 -116.4503 298° West 454 522 40,000  Level Los Angeles Center
10:24AM 36.7350 -116.5894 298° West 454 522 40,000  Level Los Angeles Center
10:25AM 36.7947 -116.7272 298° West 453 521 40,000  Level Los Angeles Center
10:26AM 36.8983 -116.8272 322° Northwest 475 547 40,000  Level Los Angeles Center
10:27AM 37.0067 -116.9181 326° Northwest 470 541 40,000  Level Los Angeles Center
10:28AM 37.0858 -117.0733 303° West 462 532 40,000  Level Los Angeles Center
10:29AM 37.1142 -117.1908 287° West 448 516 40,000  Level Oakland Center
10:30AM 37.1503 -117.3389 287° West 443 510 40,000  Level Oakland Center
10:31AM 37.1853 -117.4878 286° West 444 511 40,000  Level Oakland Center
10:32AM 37.2189 -117.6347 286° West 439 505 40,000  Level Oakland Center
10:33AM 37.2519 -117.7828 286° West 440 506 40,000  Level Oakland Center
10:34AM 37.2925 -117.9586 286° West 435 501 40,000  Level Oakland Center
10:35AM 37.3250 -118.1053 286° West 435 501 40,000  Level Oakland Center
10:36AM 37.3572 -118.2517 286° West 434 499 40,000  Level Oakland Center
10:37AM 37.3900 -118.3964 286° West 432 497 40,000  Level Oakland Center
10:38AM 37.4211 -118.5417 285° West 429 494 40,000  Level Oakland Center
10:39AM 37.4536 -118.6886 286° West 433 498 40,000  Level Oakland Center
10:40AM 37.4844 -118.8381 285° West 426 490 40,000  Level Oakland Center
10:41AM 37.5150 -118.9811 285° West 425 489 40,000  Level Oakland Center
10:42AM 37.5464 -119.1258 285° West 427 491 40,000  Level Oakland Center
10:43AM 37.5775 -119.2719 285° West 430 495 40,000  Level Oakland Center
10:44AM 37.6117 -119.4264 286° West 432 497 40,000 -300 Level Oakland Center
10:45AM 37.6419 -119.5736 285° West 433 498 39,400 -1,020 Descending Oakland Center
10:46AM 37.6731 -119.7200 285° West 431 496 38,000 -1,920 Descending Oakland Center
10:47AM 37.7031 -119.8650 285° West 426 490 35,500 -2,700 Descending Oakland Center
10:48AM 37.7319 -120.0108 284° West 427 491 32,600 -2,760 Descending Oakland Center
10:49AM 37.7628 -120.1586 285° West 433 498 29,900 -2,400 Descending Oakland Center
10:50AM 37.7919 -120.3028 284° West 426 490 27,700 -2,400 Descending Oakland Center
10:51AM 37.8250 -120.4675 284° West 403 464 25,100 -2,340 Descending Oakland Center
10:52AM 37.8522 -120.6011 285° West 393 452 23,000 -1,560 Descending Oakland Center
10:53AM 37.8617 -120.7306 275° West 372 428 22,000 -1,440 Descending Oakland Center
10:54AM 37.8528 -120.8664 265° West 384 442 20,100 -2,160 Descending Oakland Center
10:56AM 37.8447 -120.9983 266° West 377 434 17,700 -2,760 Descending Oakland Center
10:57AM 37.8356 -121.1347 265° West 385 443 14,500 -2,760 Descending Oakland Center
10:58AM 37.8017 -121.2603 251° West 379 436 12,100 -1,260 Descending Oakland Center
10:59AM 37.7667 -121.3833 250° West 351 404 11,900 -960 Descending Northern Cal TRACON
11:00AM 37.7167 -121.4833 238° Southwest 293 337 10,200 -1,680 Descending Northern Cal TRACON
11:01AM 37.6833 -121.5833 247° West 296 341 8,600 -1,200 Descending Northern Cal TRACON
11:02AM 37.6667 -121.6667 256° West 277 319 8,000 -360 Descending Northern Cal TRACON
11:03AM 37.6333 -121.7333 238° Southwest 239 275 8,000  Level Northern Cal TRACON
11:03AM 37.6167 -121.8000 253° West 248 285 8,000 -420 Level Northern Cal TRACON
11:04AM 37.5833 -121.8833 243° Southwest 250 288 7,300 -1,320 Descending Northern Cal TRACON
11:05AM 37.5500 -121.9667 243° Southwest 255 293 5,400 -1,920 Descending Northern Cal TRACON
11:06AM 37.5833 -122.0333 302° West 250 288 3,500 -1,320 Descending Northern Cal TRACON
11:07AM 37.6167 -122.1000 302° West 218 251 2,900 -840 Descending Northern Cal TRACON
11:08AM 37.6500 -122.1333 322° Northwest 151 174 2,000 -1,080 Descending Northern Cal TRACON
11:09AM 37.6833 -122.1667 322° Northwest 138 159 900 -1,020 Descending Northern Cal TRACON
11:10AM 37.7000 -122.2167 293° West 138 159 100 -840 Descending Northern Cal TRACON
11:13AM 37.7167 -122.2167 270° West  Level FlightAware Approximate
11:20AM 37.7213 -122.2207 270° West  Level Estimated